Terminal Aerodrome Forecast
Issued by NWS Grand Rapids, MI

Home | Current Version | Previous Version | Text Only | Print | Product List | Glossary On
Versions: 1 2 3 4 5 6 7 8 9 10 11 12 13 14 15 16 17 18 19 20 21
000
FTUS43 KGRR 282320
TAFGRR
TAF
KGRR 282320Z 2900/2924 21006KT P6SM SCT120 BKN200
     FM290400 VRB03KT P6SM VCSH SCT050 BKN120
     FM291500 13007KT P6SM -SHRA SCT025 OVC035=

USA.gov is the U.S. government's official web portal to all federal, state and local government web resources and services.